createdAt,value
2019-02-19T00:01:35.165Z,81.05
2019-02-19T00:04:06.053Z,82.42
2019-02-19T00:14:15.353Z,78.67
2019-02-19T00:16:45.844Z,82.35
2019-02-19T00:19:16.314Z,78.78
2019-02-19T00:21:46.855Z,87.62
2019-02-19T00:24:17.373Z,76.70
2019-02-19T00:26:47.863Z,80.03
2019-02-19T00:29:18.468Z,75.20
2019-02-19T00:31:48.924Z,77.03
2019-02-19T00:34:19.474Z,88.72
2019-02-19T00:36:49.956Z,84.15
2019-02-19T00:39:20.423Z,79.45
2019-02-19T00:41:51.033Z,81.67
2019-02-19T00:44:21.573Z,79.07
2019-02-19T00:46:52.073Z,79.55
2019-02-19T00:49:22.557Z,79.12
2019-02-19T00:51:53.053Z,85.12
2019-02-19T00:54:23.505Z,82.12
2019-02-19T00:56:54.023Z,75.10
2019-02-19T00:59:24.533Z,86.15
2019-02-19T01:01:55.073Z,82.90
2019-02-19T01:04:25.693Z,88.20
2019-02-19T01:06:56.232Z,89.72
2019-02-19T01:09:26.873Z,81.40
2019-02-19T01:11:57.796Z,71.92
2019-02-19T01:14:28.284Z,85.67
2019-02-19T01:16:58.778Z,92.37
2019-02-19T01:19:29.243Z,87.27
2019-02-19T01:21:59.739Z,78.15
2019-02-19T01:24:30.214Z,67.00
2019-02-19T01:27:00.794Z,78.75
2019-02-19T01:29:31.314Z,82.17
2019-02-19T01:32:01.834Z,83.60
2019-02-19T01:34:32.393Z,80.17
2019-02-19T01:37:02.956Z,79.42
2019-02-19T01:39:33.496Z,74.45
2019-02-19T01:42:04.084Z,78.28
2019-02-19T01:44:34.614Z,86.90
2019-02-19T01:47:05.103Z,92.55
2019-02-19T01:49:35.609Z,79.00
2019-02-19T01:52:06.169Z,86.08
2019-02-19T01:54:36.687Z,83.00
2019-02-19T01:57:07.225Z,87.30
2019-02-19T01:59:37.673Z,83.58
2019-02-19T02:02:08.154Z,91.82
2019-02-19T02:04:38.673Z,83.52
2019-02-19T02:07:09.165Z,77.72
2019-02-19T02:09:39.696Z,78.12
2019-02-19T02:12:10.173Z,81.57
2019-02-19T02:14:40.733Z,84.52
2019-02-19T02:17:11.274Z,82.12
2019-02-19T02:19:41.774Z,81.15
2019-02-19T02:22:12.278Z,85.90
2019-02-19T02:24:42.744Z,81.85
2019-02-19T02:27:13.258Z,88.67
2019-02-19T02:29:43.744Z,69.17
2019-02-19T02:32:14.257Z,82.22
2019-02-19T02:34:44.731Z,84.40
2019-02-19T02:37:15.288Z,78.25
2019-02-19T02:39:45.819Z,82.05
2019-02-19T02:42:16.348Z,82.90
2019-02-19T02:44:46.830Z,84.75
2019-02-19T02:47:17.358Z,84.03
2019-02-19T02:49:47.838Z,79.87
2019-02-19T02:52:18.418Z,77.82
2019-02-19T02:54:48.911Z,83.75
2019-02-19T02:57:19.447Z,73.17
2019-02-19T02:59:49.877Z,80.80
2019-02-19T03:02:20.407Z,87.70
2019-02-19T03:04:50.901Z,84.22
2019-02-19T03:07:42.387Z,86.85
2019-02-19T03:10:12.908Z,83.55
2019-02-19T03:12:43.437Z,91.12
2019-02-19T03:15:14.788Z,83.55
2019-02-19T03:17:46.308Z,84.75
2019-02-19T03:20:16.794Z,79.62
2019-02-19T03:22:47.319Z,84.97
2019-02-19T03:25:17.800Z,70.72
2019-02-19T03:27:48.347Z,73.05
2019-02-19T03:30:18.896Z,79.95
2019-02-19T03:32:49.479Z,80.28
2019-02-19T03:35:19.938Z,88.95
2019-02-19T03:37:50.497Z,83.97
2019-02-19T03:40:21.985Z,78.83
2019-02-19T03:42:52.548Z,78.05
2019-02-19T03:45:23.170Z,67.60
2019-02-19T03:47:53.737Z,78.47
2019-02-19T03:50:24.237Z,85.53
2019-02-19T03:52:54.829Z,80.15
2019-02-19T03:55:25.475Z,89.60
2019-02-19T03:57:56.000Z,85.72
2019-02-19T04:00:26.469Z,72.50
2019-02-19T04:02:56.954Z,74.77
2019-02-19T04:05:27.477Z,84.03
2019-02-19T04:07:57.921Z,75.90
2019-02-19T04:10:28.428Z,88.47
2019-02-19T04:12:58.917Z,80.77
2019-02-19T04:15:29.439Z,78.50
2019-02-19T04:17:59.918Z,83.80
2019-02-19T04:20:30.389Z,82.45
2019-02-19T04:23:00.887Z,89.83
2019-02-19T04:25:31.438Z,80.85
2019-02-19T04:28:01.917Z,79.85
2019-02-19T04:30:32.438Z,84.95
2019-02-19T04:33:02.929Z,84.20
2019-02-19T04:35:33.418Z,88.55
2019-02-19T04:38:03.918Z,84.65
2019-02-19T04:40:34.418Z,82.35
2019-02-19T04:43:04.914Z,84.72
2019-02-19T04:45:35.428Z,85.90
2019-02-19T04:48:05.892Z,82.78
2019-02-19T04:50:36.441Z,83.27
2019-02-19T04:53:06.978Z,79.67
2019-02-19T04:55:37.540Z,85.53
2019-02-19T04:58:08.037Z,85.32
2019-02-19T05:00:38.667Z,91.30
2019-02-19T05:03:09.158Z,91.80
2019-02-19T05:05:39.670Z,84.65
2019-02-19T05:08:10.137Z,82.80
2019-02-19T05:10:40.637Z,85.07
2019-02-19T05:13:11.104Z,83.15
2019-02-19T05:15:41.608Z,69.82
2019-02-19T05:18:12.067Z,79.60
2019-02-19T05:20:42.611Z,83.35
2019-02-19T05:23:13.168Z,84.40
2019-02-19T05:25:43.720Z,78.12
2019-02-19T05:28:14.221Z,78.30
2019-02-19T05:30:44.909Z,84.62
2019-02-19T05:33:15.419Z,74.55
2019-02-19T05:35:45.989Z,81.25
2019-02-19T05:38:17.567Z,85.28
2019-02-19T05:40:48.370Z,81.53
2019-02-19T05:43:19.037Z,88.90
2019-02-19T05:45:49.559Z,81.53
2019-02-19T05:48:20.059Z,82.33
2019-02-19T05:50:50.622Z,78.72
2019-02-19T05:53:21.197Z,78.83
2019-02-19T05:55:51.735Z,76.17
2019-02-19T05:58:45.556Z,72.30
2019-02-19T06:01:19.666Z,66.22
2019-02-19T06:03:52.609Z,80.07
2019-02-19T06:06:24.778Z,77.25
2019-02-19T06:08:55.387Z,84.15
2019-02-19T06:11:25.928Z,84.65
2019-02-19T06:13:56.558Z,79.95
2019-02-19T06:16:27.097Z,78.02
2019-02-19T06:18:57.578Z,85.28
2019-02-19T06:21:28.108Z,78.05
2019-02-19T06:24:02.588Z,79.65
2019-02-19T06:26:59.683Z,71.45
2019-02-19T06:29:33.639Z,82.85
2019-02-19T06:35:25.457Z,78.15
2019-02-19T06:37:59.600Z,77.82
2019-02-19T06:40:30.567Z,86.08
2019-02-19T06:43:03.568Z,85.30
2019-02-19T06:45:34.098Z,80.03
2019-02-19T06:48:04.598Z,79.15
2019-02-19T06:50:35.242Z,83.80
2019-02-19T06:53:05.737Z,79.30
2019-02-19T06:55:36.317Z,81.08
2019-02-19T06:58:06.838Z,83.85
2019-02-19T07:00:37.458Z,84.20
2019-02-19T07:03:32.577Z,75.78
2019-02-19T07:06:03.659Z,82.72
2019-02-19T07:08:34.237Z,82.30
2019-02-19T07:11:04.911Z,77.25
2019-02-19T07:13:35.467Z,77.42
2019-02-19T07:16:06.218Z,80.30
2019-02-19T07:18:37.129Z,78.07
2019-02-19T07:21:10.031Z,77.85
2019-02-19T07:23:40.575Z,85.47
2019-02-19T07:26:11.107Z,78.87
2019-02-19T07:28:41.648Z,77.70
2019-02-19T07:31:12.367Z,76.77
2019-02-19T07:33:42.897Z,78.33
2019-02-19T07:36:13.538Z,81.87
2019-02-19T07:38:45.037Z,76.57
2019-02-19T07:41:16.537Z,83.67
2019-02-19T07:43:47.038Z,77.85
2019-02-19T07:46:17.558Z,79.40
2019-02-19T07:48:49.392Z,81.63
2019-02-19T07:51:20.118Z,79.75
2019-02-19T07:54:26.238Z,81.85
2019-02-19T07:56:58.488Z,79.05
2019-02-19T08:02:00.209Z,74.82
2019-02-19T08:04:30.758Z,73.65
2019-02-19T08:07:01.338Z,83.07
2019-02-19T08:09:31.840Z,72.78
2019-02-19T08:12:02.362Z,72.53
2019-02-19T08:14:32.918Z,79.27
2019-02-19T08:17:03.509Z,78.10
2019-02-19T08:19:34.036Z,85.67
2019-02-19T08:22:04.696Z,72.00
2019-02-19T08:24:35.318Z,63.10
2019-02-19T08:27:05.848Z,54.50
2019-02-19T08:29:36.378Z,49.53
2019-02-19T08:32:09.835Z,49.50
2019-02-19T08:34:40.308Z,54.15
2019-02-19T08:37:10.846Z,49.33
2019-02-19T08:39:41.371Z,45.73
2019-02-19T08:42:11.908Z,44.98
2019-02-19T08:44:42.358Z,48.83
2019-02-19T08:47:13.035Z,42.58
2019-02-19T08:49:43.600Z,50.03
2019-02-19T08:52:14.119Z,44.18
2019-02-19T08:54:44.656Z,45.17
2019-02-19T08:57:15.308Z,44.67
2019-02-19T08:59:45.779Z,46.02
2019-02-19T09:02:16.298Z,43.95
2019-02-19T09:04:46.798Z,44.73
2019-02-19T09:07:17.378Z,40.92
2019-02-19T09:09:47.995Z,38.23
2019-02-19T09:12:18.545Z,37.78
2019-02-19T09:14:49.486Z,39.30
2019-02-19T09:17:19.999Z,39.78
2019-02-19T09:19:50.488Z,39.95
2019-02-19T09:22:21.018Z,41.50
2019-02-19T09:24:51.579Z,39.45
2019-02-19T09:27:22.096Z,42.70
2019-02-19T09:29:52.838Z,33.20
2019-02-19T09:32:23.399Z,41.48
2019-02-19T09:34:53.988Z,32.42
2019-02-19T09:37:24.527Z,36.28
2019-02-19T09:39:55.057Z,31.50
2019-02-19T09:42:25.785Z,37.38
2019-02-19T09:44:56.508Z,36.28
2019-02-19T09:47:27.028Z,35.13
2019-02-19T09:49:58.241Z,34.25
2019-02-19T09:52:28.888Z,35.13
2019-02-19T09:54:59.378Z,38.48
2019-02-19T09:57:32.649Z,28.47
2019-02-19T10:00:03.373Z,35.03
2019-02-19T10:02:34.088Z,32.73
2019-02-19T10:05:04.700Z,35.70
2019-02-19T10:07:35.229Z,30.23
2019-02-19T10:10:06.469Z,28.83
2019-02-19T10:12:37.018Z,28.12
2019-02-19T10:15:08.458Z,29.32
2019-02-19T10:17:39.009Z,31.37
2019-02-19T10:20:09.848Z,35.70
2019-02-19T10:22:40.397Z,31.40
2019-02-19T10:25:11.506Z,34.30
2019-02-19T10:27:42.050Z,27.07
2019-02-19T10:30:14.837Z,27.45
2019-02-19T10:32:45.414Z,36.08
2019-02-19T10:35:15.887Z,31.23
2019-02-19T10:37:46.480Z,30.12
2019-02-19T10:40:17.123Z,27.02
2019-02-19T10:42:47.691Z,32.03
2019-02-19T10:45:18.906Z,29.05
2019-02-19T10:47:49.467Z,25.40
2019-02-19T10:50:19.963Z,32.10
2019-02-19T10:52:51.794Z,32.55
2019-02-19T10:55:27.737Z,28.23
2019-02-19T10:57:58.279Z,27.37
2019-02-19T11:00:28.827Z,29.15
2019-02-19T11:02:59.458Z,30.35
2019-02-19T11:05:30.008Z,28.32
2019-02-19T11:08:00.518Z,28.77
2019-02-19T11:10:32.978Z,31.62
2019-02-19T11:13:03.578Z,32.67
2019-02-19T11:15:34.077Z,28.47
2019-02-19T11:18:04.798Z,30.60
2019-02-19T11:20:35.248Z,32.42
2019-02-19T11:23:08.421Z,32.10
2019-02-19T11:25:39.301Z,35.75
2019-02-19T11:28:11.520Z,30.72
2019-02-19T11:30:50.058Z,28.42
2019-02-19T11:35:45.667Z,31.45
2019-02-19T11:38:19.486Z,29.35
2019-02-19T11:40:50.128Z,24.27
2019-02-19T11:43:20.706Z,22.50
2019-02-19T11:45:55.544Z,25.80
2019-02-19T11:48:26.341Z,27.48
2019-02-19T11:50:57.268Z,31.12
2019-02-19T11:53:29.574Z,24.82
2019-02-19T11:56:03.518Z,25.43
2019-02-19T11:58:49.488Z,25.17
2019-02-19T12:01:24.059Z,24.15
2019-02-19T12:03:56.077Z,27.13
2019-02-19T12:06:26.631Z,27.60
2019-02-19T12:08:57.146Z,24.45
2019-02-19T12:11:27.790Z,21.75
2019-02-19T12:14:00.001Z,23.47
2019-02-19T12:16:33.657Z,21.10
2019-02-19T12:19:04.571Z,21.25
2019-02-19T12:21:36.516Z,25.95
2019-02-19T12:24:07.335Z,30.90
2019-02-19T12:26:45.191Z,26.02
2019-02-19T12:29:25.668Z,21.77
2019-02-19T12:32:04.986Z,24.12
2019-02-19T12:34:38.203Z,21.87
2019-02-19T12:37:27.026Z,22.67
2019-02-19T12:40:04.747Z,21.75
2019-02-19T12:42:49.479Z,24.77
2019-02-19T12:45:38.212Z,21.27
2019-02-19T12:48:59.016Z,23.42
2019-02-19T12:51:42.588Z,19.25
2019-02-19T12:54:24.506Z,19.67
2019-02-19T12:57:01.308Z,22.65
2019-02-19T12:59:32.007Z,20.62
2019-02-19T13:02:08.754Z,18.57
2019-02-19T13:04:59.588Z,21.80
2019-02-19T13:07:38.035Z,19.25
2019-02-19T13:10:12.756Z,21.40
2019-02-19T13:12:45.147Z,26.48
2019-02-19T13:15:15.977Z,21.23
2019-02-19T13:17:48.088Z,23.75
2019-02-19T13:20:21.699Z,26.23
2019-02-19T13:22:57.339Z,22.25
2019-02-19T13:25:31.508Z,21.90
2019-02-19T13:28:16.086Z,24.47
2019-02-19T13:30:47.787Z,22.52
2019-02-19T13:33:21.719Z,20.92
2019-02-19T13:35:53.888Z,22.58
2019-02-19T13:38:25.497Z,28.98
2019-02-19T13:40:56.018Z,21.57
2019-02-19T13:43:26.688Z,20.35
2019-02-19T13:45:57.258Z,23.05
2019-02-19T13:48:27.895Z,23.62
2019-02-19T13:50:58.532Z,22.27
2019-02-19T13:53:46.557Z,21.95
2019-02-19T13:56:17.164Z,19.85
2019-02-19T13:58:47.750Z,20.70
2019-02-19T14:01:18.484Z,20.40
2019-02-19T14:03:49.238Z,19.17
2019-02-19T14:06:20.069Z,19.30
2019-02-19T14:08:52.891Z,23.92
2019-02-19T14:25:44.798Z,18.82
2019-02-19T14:28:35.426Z,18.70
2019-02-19T14:31:23.507Z,18.73
2019-02-19T14:34:12.908Z,21.12
2019-02-19T14:37:09.761Z,21.87
2019-02-19T14:46:16.836Z,23.32
2019-02-19T14:52:22.836Z,18.07
2019-02-19T14:55:04.932Z,20.57
2019-02-19T14:58:00.395Z,20.72
2019-02-19T15:00:49.801Z,20.92
2019-02-19T15:03:40.877Z,20.35
2019-02-19T15:06:49.071Z,21.75
2019-02-19T15:09:48.329Z,21.85
2019-02-19T15:12:49.807Z,19.52
2019-02-19T15:15:39.218Z,23.85
2019-02-19T15:18:28.459Z,22.55
2019-02-19T15:21:28.146Z,23.12
2019-02-19T15:24:19.821Z,25.30
2019-02-19T15:27:10.818Z,24.20
2019-02-19T15:30:33.518Z,26.73
2019-02-19T15:33:35.897Z,26.48
2019-02-19T15:36:40.358Z,27.60
2019-02-19T15:43:05.534Z,27.55
2019-02-19T15:46:24.846Z,33.63
2019-02-19T15:49:10.247Z,26.42
2019-02-19T15:52:09.118Z,47.43
2019-02-19T15:54:49.948Z,86.30
2019-02-19T15:57:40.141Z,54.55
2019-02-19T16:00:29.300Z,49.27
2019-02-19T16:03:21.409Z,41.83
2019-02-19T16:06:14.000Z,45.73
2019-02-19T16:15:04.077Z,40.40
2019-02-19T16:17:50.836Z,33.67
2019-02-19T16:20:43.498Z,39.53
2019-02-19T16:26:39.310Z,30.72
2019-02-19T16:29:37.777Z,35.65
2019-02-19T16:32:30.109Z,38.78
2019-02-19T16:35:18.352Z,42.85
2019-02-19T16:38:11.613Z,47.65
2019-02-19T16:40:57.028Z,47.88
2019-02-19T16:43:45.257Z,47.85
2019-02-19T16:46:34.685Z,41.58
2019-02-19T16:49:16.696Z,40.17
2019-02-19T16:51:57.298Z,47.98
2019-02-19T16:54:33.458Z,49.80
2019-02-19T16:57:12.280Z,39.30
2019-02-19T17:00:10.738Z,38.15
2019-02-19T17:03:08.931Z,35.50
2019-02-19T17:05:47.398Z,38.33
2019-02-19T17:08:38.425Z,38.15
2019-02-19T17:11:27.966Z,38.95
2019-02-19T17:14:35.028Z,35.85
2019-02-19T17:17:25.618Z,39.05
2019-02-19T17:20:26.471Z,39.13
2019-02-19T17:26:55.490Z,43.78
2019-02-19T17:29:40.597Z,37.05
2019-02-19T17:32:48.319Z,38.50
2019-02-19T17:35:42.128Z,35.25
2019-02-19T17:38:34.477Z,38.17
2019-02-19T17:41:11.399Z,39.25
2019-02-19T17:43:55.900Z,42.55
2019-02-19T17:46:40.066Z,46.00
2019-02-19T17:49:29.448Z,40.12
2019-02-19T17:52:18.808Z,40.90
2019-02-19T17:55:27.638Z,42.65
2019-02-19T17:58:21.070Z,48.38
2019-02-19T18:01:09.088Z,48.35
2019-02-19T18:04:25.488Z,43.40
2019-02-19T18:07:13.897Z,53.40
2019-02-19T18:10:09.079Z,53.42
2019-02-19T18:13:04.616Z,45.75
2019-02-19T18:16:02.663Z,53.42
2019-02-19T18:18:50.138Z,49.88
2019-02-19T18:21:22.398Z,47.78
2019-02-19T18:24:29.259Z,46.35
2019-02-19T18:27:14.498Z,52.27
2019-02-19T18:29:46.468Z,50.08
2019-02-19T18:32:19.191Z,39.65
2019-02-19T18:34:55.148Z,42.25
2019-02-19T18:37:26.218Z,38.63
2019-02-19T18:39:59.362Z,38.80
2019-02-19T18:42:34.619Z,38.00
2019-02-19T18:45:08.318Z,39.05
2019-02-19T18:47:38.938Z,40.92
2019-02-19T18:50:09.787Z,45.30
2019-02-19T18:52:40.449Z,38.23
2019-02-19T18:55:29.157Z,42.98
2019-02-19T18:58:32.006Z,39.50
2019-02-19T19:01:12.026Z,44.00
2019-02-19T19:03:45.317Z,42.53
2019-02-19T19:06:18.343Z,40.35
2019-02-19T19:08:49.050Z,45.38
2019-02-19T19:11:19.619Z,45.12
2019-02-19T19:13:50.148Z,38.85
2019-02-19T19:16:21.070Z,48.23
2019-02-19T19:19:00.299Z,43.05
2019-02-19T19:24:41.248Z,41.58
2019-02-19T19:27:11.851Z,43.48
2019-02-19T19:29:47.569Z,47.23
2019-02-19T19:32:51.846Z,44.75
2019-02-19T19:35:22.619Z,47.38
2019-02-19T19:38:04.276Z,51.53
2019-02-19T19:42:55.683Z,45.38
2019-02-19T19:48:00.201Z,47.62
2019-02-19T19:50:43.599Z,46.80
2019-02-19T19:53:32.346Z,42.55
2019-02-19T19:56:06.346Z,50.03
2019-02-19T19:59:33.878Z,52.62
2019-02-19T20:02:14.277Z,47.75
2019-02-19T20:04:44.798Z,46.60
2019-02-19T20:07:34.297Z,47.27
2019-02-19T20:10:08.728Z,48.20
2019-02-19T20:12:40.085Z,51.92
2019-02-19T20:15:10.859Z,50.47
2019-02-19T20:17:41.501Z,46.83
2019-02-19T20:20:12.078Z,46.13
2019-02-19T20:22:42.726Z,40.63
2019-02-19T20:25:16.128Z,43.55
2019-02-19T20:28:03.324Z,44.25
2019-02-19T20:30:53.938Z,45.52
2019-02-19T20:33:33.131Z,45.45
2019-02-19T20:36:15.927Z,37.83
2019-02-19T20:39:56.937Z,38.55
2019-02-19T20:42:18.862Z,39.60
2019-02-19T20:45:30.356Z,42.55
2019-02-19T20:48:16.220Z,39.88
2019-02-19T20:54:17.078Z,31.68
2019-02-19T20:56:48.866Z,21.02
2019-02-19T20:59:19.434Z,18.62
2019-02-19T21:01:59.438Z,15.65
2019-02-19T21:04:31.177Z,18.02
2019-02-19T21:07:05.189Z,17.00
2019-02-19T21:09:43.461Z,16.82
2019-02-19T21:12:09.708Z,17.25
2019-02-19T21:14:40.619Z,20.25
2019-02-19T21:17:12.331Z,21.30
2019-02-19T21:19:43.018Z,23.35
2019-02-19T21:22:13.657Z,27.32
2019-02-19T21:24:52.572Z,26.37
2019-02-19T21:27:26.224Z,23.27
2019-02-19T21:33:07.896Z,25.23
2019-02-19T21:40:31.276Z,21.57
2019-02-19T21:42:49.915Z,18.23
2019-02-19T21:45:20.708Z,19.30
2019-02-19T21:47:51.260Z,21.10
2019-02-19T21:50:21.965Z,20.27
2019-02-19T21:52:52.608Z,16.50
2019-02-19T21:55:25.211Z,20.12
2019-02-19T22:00:35.641Z,16.27
2019-02-19T22:03:06.157Z,19.52
2019-02-19T22:05:39.190Z,18.87
2019-02-19T22:08:09.669Z,20.23
2019-02-19T22:13:51.598Z,21.87
2019-02-19T22:16:22.177Z,20.62
2019-02-19T22:19:25.144Z,19.27
2019-02-19T22:23:29.231Z,18.05
2019-02-19T22:26:05.836Z,20.23
2019-02-19T22:28:36.721Z,19.87
2019-02-19T22:31:11.866Z,17.02
2019-02-19T22:33:41.098Z,15.25
2019-02-19T22:36:11.824Z,19.67
2019-02-19T22:39:18.448Z,17.48
2019-02-19T22:41:49.236Z,15.72
2019-02-19T22:44:28.577Z,22.60
2019-02-19T22:53:32.726Z,19.15
2019-02-19T22:56:12.738Z,16.90
2019-02-19T22:58:43.300Z,17.62
2019-02-19T23:01:31.258Z,19.90
2019-02-19T23:04:01.979Z,17.65
2019-02-19T23:10:43.258Z,13.88
2019-02-19T23:14:12.744Z,17.50
2019-02-19T23:17:23.156Z,15.25
2019-02-19T23:21:13.905Z,17.55
2019-02-19T23:27:17.307Z,15.93
2019-02-19T23:37:06.819Z,14.30
2019-02-19T23:42:43.338Z,16.48
2019-02-19T23:45:22.443Z,19.40
2019-02-19T23:48:00.518Z,20.10
2019-02-19T23:50:35.403Z,19.35
2019-02-19T23:53:05.918Z,16.02
2019-02-19T23:55:39.387Z,13.30
2019-02-19T23:58:10.028Z,21.35
